createdAt,value
2023-04-30T00:00:15.050Z,2.33
2023-04-30T00:02:44.944Z,2.80
2023-04-30T00:05:13.501Z,2.80
2023-04-30T00:07:42.522Z,3.17
2023-04-30T00:10:14.695Z,2.80
2023-04-30T00:12:43.181Z,2.60
2023-04-30T00:15:12.558Z,3.07
2023-04-30T00:17:41.178Z,3.00
2023-04-30T00:20:10.792Z,2.23
2023-04-30T00:22:39.270Z,2.60
2023-04-30T00:25:08.100Z,3.37
2023-04-30T00:27:40.142Z,2.43
2023-04-30T00:30:10.368Z,3.00
2023-04-30T00:32:38.838Z,2.53
2023-04-30T00:35:08.472Z,3.03
2023-04-30T00:37:40.286Z,2.87
2023-04-30T00:40:10.231Z,2.70
2023-04-30T00:42:40.856Z,2.97
2023-04-30T00:45:10.270Z,3.00
2023-04-30T00:47:39.187Z,3.10
2023-04-30T00:50:09.814Z,2.80
2023-04-30T00:52:38.481Z,3.20
2023-04-30T00:55:07.625Z,3.13
2023-04-30T00:57:37.233Z,3.13
2023-04-30T01:00:11.893Z,3.00
2023-04-30T01:02:40.565Z,2.70
2023-04-30T01:05:09.858Z,2.90
2023-04-30T01:07:45.056Z,2.50
2023-04-30T01:10:15.811Z,3.10
2023-04-30T01:12:48.766Z,2.60
2023-04-30T01:15:25.264Z,2.80
2023-04-30T01:17:56.718Z,3.23
2023-04-30T01:20:26.088Z,2.97
2023-04-30T01:22:58.157Z,2.50
2023-04-30T01:25:46.813Z,4.03
2023-04-30T01:28:17.611Z,2.57
2023-04-30T01:30:46.679Z,3.60
2023-04-30T01:33:15.971Z,4.00
2023-04-30T01:35:55.901Z,2.80
2023-04-30T01:38:31.047Z,2.47
2023-04-30T01:41:02.172Z,2.63
2023-04-30T01:43:36.030Z,2.23
2023-04-30T01:46:11.757Z,2.90
2023-04-30T01:48:42.615Z,2.40
2023-04-30T01:51:17.441Z,2.43
2023-04-30T01:53:47.609Z,2.60
2023-04-30T01:56:21.562Z,3.50
2023-04-30T01:58:53.819Z,2.83
2023-04-30T02:01:29.985Z,3.40
2023-04-30T02:03:59.285Z,3.57
2023-04-30T02:06:30.452Z,2.87
2023-04-30T02:09:03.519Z,2.67
2023-04-30T02:11:33.423Z,2.97
2023-04-30T02:14:13.555Z,3.30
2023-04-30T02:16:42.650Z,2.90
2023-04-30T02:19:11.319Z,3.40
2023-04-30T02:21:41.069Z,3.17
2023-04-30T02:24:09.682Z,3.70
2023-04-30T02:26:38.047Z,3.30
2023-04-30T02:29:08.352Z,3.80
2023-04-30T02:31:36.876Z,3.73
2023-04-30T02:34:05.628Z,3.17
2023-04-30T02:36:36.770Z,3.07
2023-04-30T02:39:06.035Z,3.03
2023-04-30T02:41:34.547Z,3.67
2023-04-30T02:44:03.622Z,2.77
2023-04-30T02:46:33.814Z,4.00
2023-04-30T02:49:02.366Z,4.10
2023-04-30T02:51:31.516Z,3.20
2023-04-30T02:54:01.089Z,3.20
2023-04-30T02:56:29.541Z,4.40
2023-04-30T02:58:58.073Z,4.00
2023-04-30T03:01:27.387Z,3.30
2023-04-30T03:03:58.362Z,3.93
2023-04-30T03:06:27.699Z,3.47
2023-04-30T03:08:59.792Z,3.53
2023-04-30T03:11:28.667Z,4.23
2023-04-30T03:13:57.464Z,3.50
2023-04-30T03:16:26.074Z,3.77
2023-04-30T03:18:54.733Z,4.17
2023-04-30T03:21:25.076Z,4.03
2023-04-30T03:23:57.439Z,3.97
2023-04-30T03:26:26.107Z,3.77
2023-04-30T03:28:55.687Z,3.70
2023-04-30T03:31:24.348Z,2.90
2023-04-30T03:33:53.141Z,3.43
2023-04-30T03:36:22.716Z,2.57
2023-04-30T03:38:56.428Z,3.67
2023-04-30T03:41:25.932Z,3.90
2023-04-30T03:43:54.740Z,4.33
2023-04-30T03:46:23.691Z,4.27
2023-04-30T03:48:53.030Z,4.10
2023-04-30T03:51:23.500Z,3.30
2023-04-30T03:53:53.641Z,3.30
2023-04-30T03:56:22.492Z,3.67
2023-04-30T03:58:51.375Z,3.37
2023-04-30T04:01:19.811Z,4.20
2023-04-30T04:03:48.254Z,3.17
2023-04-30T04:06:16.849Z,3.50
2023-04-30T04:08:45.409Z,3.77
2023-04-30T04:11:15.406Z,4.40
2023-04-30T04:13:44.069Z,3.43
2023-04-30T04:16:12.752Z,3.00
2023-04-30T04:18:54.645Z,4.33
2023-04-30T04:21:23.296Z,4.67
2023-04-30T04:23:52.574Z,4.30
2023-04-30T04:26:33.478Z,3.73
2023-04-30T04:29:02.892Z,4.60
2023-04-30T04:31:32.548Z,3.80
2023-04-30T04:34:02.933Z,3.93
2023-04-30T04:36:34.238Z,3.50
2023-04-30T04:39:17.146Z,4.30
2023-04-30T04:44:30.001Z,4.73
2023-04-30T04:46:58.942Z,4.57
2023-04-30T04:49:27.975Z,4.30
2023-04-30T04:51:56.682Z,4.03
2023-04-30T04:54:29.096Z,4.13
2023-04-30T04:57:00.849Z,3.27
2023-04-30T04:59:29.796Z,5.37
2023-04-30T05:01:58.456Z,4.40
2023-04-30T05:04:28.515Z,4.63
2023-04-30T05:06:57.546Z,4.40
2023-04-30T05:09:29.633Z,3.00
2023-04-30T05:12:04.082Z,4.00
2023-04-30T05:14:32.879Z,4.20
2023-04-30T05:17:03.707Z,4.40
2023-04-30T05:19:34.319Z,4.23
2023-04-30T05:22:04.383Z,4.93
2023-04-30T05:24:36.001Z,4.07
2023-04-30T05:27:06.680Z,3.87
2023-04-30T05:29:35.621Z,5.00
2023-04-30T05:32:05.501Z,4.20
2023-04-30T05:34:36.920Z,4.30
2023-04-30T05:37:10.551Z,3.97
2023-04-30T05:39:53.194Z,4.63
2023-04-30T05:42:24.141Z,4.80
2023-04-30T05:44:53.829Z,3.83
2023-04-30T05:47:25.481Z,3.80
2023-04-30T05:49:55.366Z,4.70
2023-04-30T05:52:24.091Z,4.60
2023-04-30T05:54:54.186Z,4.10
2023-04-30T05:57:24.417Z,4.93
2023-04-30T05:59:54.374Z,3.90
2023-04-30T06:02:23.653Z,4.90
2023-04-30T06:05:04.853Z,4.20
2023-04-30T06:07:33.772Z,5.37
2023-04-30T06:10:04.153Z,3.33
2023-04-30T06:12:34.741Z,4.90
2023-04-30T06:15:04.201Z,4.30
2023-04-30T06:17:35.267Z,4.80
2023-04-30T06:20:07.287Z,5.07
2023-04-30T06:22:36.316Z,4.03
2023-04-30T06:25:07.843Z,4.57
2023-04-30T06:27:38.257Z,4.20
2023-04-30T06:30:10.958Z,3.70
2023-04-30T06:32:41.583Z,4.57
2023-04-30T06:35:17.933Z,4.77
2023-04-30T06:37:47.844Z,4.40
2023-04-30T06:40:17.795Z,4.30
2023-04-30T06:42:48.977Z,4.10
2023-04-30T06:48:27.416Z,3.80
2023-04-30T06:56:41.865Z,3.47
2023-04-30T06:59:13.144Z,4.23
2023-04-30T07:01:42.145Z,3.97
2023-04-30T07:07:08.982Z,3.50
2023-04-30T07:09:38.072Z,3.13
2023-04-30T07:12:08.909Z,4.00
2023-04-30T07:21:03.900Z,3.53
2023-04-30T07:23:33.720Z,3.03
2023-04-30T07:26:03.168Z,3.90
2023-04-30T07:28:31.914Z,3.23
2023-04-30T07:31:00.801Z,4.07
2023-04-30T07:33:32.587Z,3.33
2023-04-30T07:36:08.027Z,3.80
2023-04-30T07:38:37.623Z,3.90
2023-04-30T07:41:06.991Z,3.70
2023-04-30T07:43:35.626Z,3.70
2023-04-30T07:46:07.437Z,2.90
2023-04-30T07:48:49.061Z,3.63
2023-04-30T07:51:19.016Z,4.43
2023-04-30T07:53:47.690Z,3.60
2023-04-30T07:56:21.175Z,3.50
2023-04-30T07:58:49.662Z,3.23
2023-04-30T08:01:19.850Z,4.40
2023-04-30T08:03:50.406Z,4.37
2023-04-30T08:06:21.100Z,4.57
2023-04-30T08:08:50.608Z,4.40
2023-04-30T08:11:19.925Z,5.67
2023-04-30T08:13:49.770Z,4.70
2023-04-30T08:16:23.606Z,5.13
2023-04-30T08:18:52.024Z,5.00
2023-04-30T08:24:51.089Z,4.80
2023-04-30T08:27:49.413Z,5.20
2023-04-30T08:58:58.940Z,2.93
2023-04-30T09:02:05.559Z,2.70
2023-04-30T09:05:10.372Z,2.83
2023-04-30T09:08:09.112Z,3.10
2023-04-30T09:11:07.457Z,2.37
2023-04-30T09:13:55.536Z,2.53
2023-04-30T09:20:08.316Z,2.50
2023-04-30T09:35:33.556Z,2.87
2023-04-30T09:38:03.219Z,3.00
2023-04-30T09:40:38.057Z,2.73
2023-04-30T09:43:07.007Z,3.23
2023-04-30T09:45:45.174Z,3.47
2023-04-30T09:48:17.543Z,3.60
2023-04-30T09:50:49.421Z,3.53
2023-04-30T09:53:23.039Z,3.53
2023-04-30T09:55:53.687Z,3.53
2023-04-30T09:58:25.213Z,2.70
2023-04-30T10:00:55.446Z,3.10
2023-04-30T10:03:25.173Z,3.30
2023-04-30T10:05:56.408Z,3.20
2023-04-30T10:08:28.263Z,3.13
2023-04-30T10:11:02.397Z,3.10
2023-04-30T10:13:33.565Z,2.50
2023-04-30T10:16:07.667Z,2.67
2023-04-30T10:18:36.875Z,2.17
2023-04-30T10:21:12.356Z,2.60
2023-04-30T10:23:43.249Z,2.90
2023-04-30T10:26:13.903Z,2.73
2023-04-30T10:28:54.907Z,2.70
2023-04-30T10:31:24.545Z,2.07
2023-04-30T10:33:56.777Z,2.00
2023-04-30T10:36:32.641Z,2.30
2023-04-30T10:39:03.698Z,2.47
2023-04-30T10:41:33.467Z,1.80
2023-04-30T10:44:10.407Z,2.20
2023-04-30T10:46:39.362Z,2.00
2023-04-30T10:49:23.839Z,2.20
2023-04-30T10:52:10.286Z,2.50
2023-04-30T10:54:49.201Z,3.17
2023-04-30T10:57:22.017Z,2.20
2023-04-30T10:59:55.510Z,2.40
2023-04-30T11:02:25.102Z,2.60
2023-04-30T11:08:16.718Z,2.57
2023-04-30T11:11:13.129Z,2.70
2023-04-30T11:13:45.452Z,2.83
2023-04-30T11:16:15.150Z,2.33
2023-04-30T11:18:44.656Z,1.67
2023-04-30T11:21:13.190Z,2.30
2023-04-30T11:23:44.477Z,1.80
2023-04-30T11:26:13.912Z,2.77
2023-04-30T11:28:54.422Z,1.60
2023-04-30T11:31:22.968Z,1.60
2023-04-30T11:33:53.139Z,2.10
2023-04-30T11:36:21.500Z,1.80
2023-04-30T11:38:53.257Z,1.77
2023-04-30T11:41:23.411Z,2.53
2023-04-30T11:43:54.072Z,1.83
2023-04-30T11:46:22.720Z,2.20
2023-04-30T11:48:53.366Z,1.73
2023-04-30T11:51:24.015Z,1.57
2023-04-30T11:53:54.750Z,1.90
2023-04-30T11:56:24.337Z,1.97
2023-04-30T11:58:54.925Z,1.67
2023-04-30T12:01:31.487Z,2.03
2023-04-30T12:04:00.540Z,2.23
2023-04-30T12:06:31.985Z,2.10
2023-04-30T12:09:07.184Z,2.63
2023-04-30T12:11:36.344Z,2.50
2023-04-30T12:14:05.640Z,1.93
2023-04-30T12:16:41.842Z,2.47
2023-04-30T12:19:13.515Z,2.40
2023-04-30T12:21:44.827Z,2.03
2023-04-30T12:24:15.282Z,2.60
2023-04-30T12:26:43.836Z,2.10
2023-04-30T12:29:15.637Z,2.10
2023-04-30T12:34:32.181Z,2.77
2023-04-30T12:37:02.131Z,2.10
2023-04-30T12:39:43.100Z,2.87
2023-04-30T12:42:11.540Z,1.87
2023-04-30T12:44:45.761Z,1.93
2023-04-30T12:47:29.416Z,2.30
2023-04-30T12:50:04.015Z,1.80
2023-04-30T12:56:06.170Z,1.60
2023-04-30T12:58:38.722Z,2.23
2023-04-30T13:01:19.952Z,1.77
2023-04-30T13:03:54.324Z,2.10
2023-04-30T13:06:23.679Z,2.27
2023-04-30T13:11:26.641Z,1.83
2023-04-30T13:13:56.780Z,1.90
2023-04-30T13:16:28.473Z,2.13
2023-04-30T13:18:58.528Z,2.40
2023-04-30T13:21:28.172Z,2.37
2023-04-30T13:23:58.494Z,1.63
2023-04-30T13:26:32.129Z,1.70
2023-04-30T13:29:04.579Z,1.90
2023-04-30T13:31:47.015Z,1.73
2023-04-30T13:34:19.512Z,1.60
2023-04-30T13:36:48.695Z,2.23
2023-04-30T13:39:17.404Z,1.50
2023-04-30T13:41:51.637Z,1.50
2023-04-30T13:44:21.492Z,1.60
2023-04-30T13:46:50.377Z,2.30
2023-04-30T13:49:19.068Z,1.70
2023-04-30T13:51:47.903Z,1.13
2023-04-30T13:54:16.711Z,1.70
2023-04-30T13:56:45.410Z,1.37
2023-04-30T13:59:16.238Z,1.57
2023-04-30T14:01:58.333Z,1.33
2023-04-30T14:04:27.471Z,1.67
2023-04-30T14:06:56.796Z,2.07
2023-04-30T14:09:27.194Z,1.80
2023-04-30T14:12:00.860Z,1.20
2023-04-30T14:14:40.201Z,1.73
2023-04-30T14:17:12.667Z,1.70
2023-04-30T14:19:41.767Z,1.77
2023-04-30T14:22:10.951Z,1.70
2023-04-30T14:24:44.245Z,1.30
2023-04-30T14:27:14.392Z,1.67
2023-04-30T14:29:52.279Z,1.37
2023-04-30T14:32:24.096Z,1.93
2023-04-30T14:34:53.123Z,1.67
2023-04-30T14:37:22.831Z,1.70
2023-04-30T14:39:51.888Z,1.97
2023-04-30T14:42:21.425Z,1.77
2023-04-30T14:44:54.368Z,1.63
2023-04-30T14:47:28.163Z,1.77
2023-04-30T14:49:58.904Z,1.80
2023-04-30T14:52:27.412Z,2.17
2023-04-30T14:54:56.078Z,1.93
2023-04-30T14:57:25.171Z,1.70
2023-04-30T14:59:57.778Z,1.70
2023-04-30T15:02:28.655Z,1.60
2023-04-30T15:04:57.738Z,1.73
2023-04-30T15:07:27.453Z,1.40
2023-04-30T15:10:01.507Z,1.70
2023-04-30T15:12:30.786Z,1.80
2023-04-30T15:15:02.898Z,2.00
2023-04-30T15:17:37.048Z,2.07
2023-04-30T15:20:10.584Z,1.87
2023-04-30T15:22:39.428Z,1.80
2023-04-30T15:25:23.132Z,1.27
2023-04-30T15:27:56.859Z,2.00
2023-04-30T15:30:31.289Z,2.00
2023-04-30T15:33:06.961Z,1.50
2023-04-30T15:35:37.877Z,2.20
2023-04-30T15:38:06.167Z,2.20
2023-04-30T15:40:34.973Z,1.60
2023-04-30T15:43:03.505Z,1.70
2023-04-30T15:45:33.630Z,2.13
2023-04-30T15:48:04.038Z,1.70
2023-04-30T15:50:39.030Z,2.00
2023-04-30T15:53:09.225Z,1.83
2023-04-30T15:55:39.700Z,1.97
2023-04-30T15:58:08.469Z,1.50
2023-04-30T16:00:37.425Z,1.70
2023-04-30T16:03:08.713Z,1.80
2023-04-30T16:05:40.519Z,2.00
2023-04-30T16:08:11.722Z,1.50
2023-04-30T16:10:43.910Z,1.93
2023-04-30T16:13:13.681Z,1.77
2023-04-30T16:15:44.373Z,1.73
2023-04-30T16:21:00.731Z,1.80
2023-04-30T16:23:31.927Z,2.10
2023-04-30T16:26:11.758Z,1.90
2023-04-30T16:28:41.776Z,1.80
2023-04-30T16:31:13.097Z,1.53
2023-04-30T16:33:47.802Z,1.90
2023-04-30T16:36:38.110Z,1.43
2023-04-30T16:39:10.817Z,1.60
2023-04-30T16:41:50.475Z,2.13
2023-04-30T16:44:20.050Z,1.70
2023-04-30T16:46:56.397Z,1.77
2023-04-30T16:49:26.276Z,2.30
2023-04-30T16:51:56.983Z,1.97
2023-04-30T16:54:25.566Z,1.90
2023-04-30T16:56:54.212Z,2.30
2023-04-30T16:59:34.536Z,1.93
2023-04-30T17:02:04.875Z,2.30
2023-04-30T17:04:36.575Z,1.60
2023-04-30T17:07:06.004Z,2.33
2023-04-30T17:09:34.526Z,2.30
2023-04-30T17:12:05.833Z,2.60
2023-04-30T17:14:39.778Z,1.93
2023-04-30T17:17:11.573Z,1.90
2023-04-30T17:19:52.622Z,1.87
2023-04-30T17:22:35.400Z,2.03
2023-04-30T17:25:07.062Z,2.00
2023-04-30T17:27:39.467Z,1.87
2023-04-30T17:30:17.511Z,1.90
2023-04-30T17:32:46.115Z,1.53
2023-04-30T17:35:16.409Z,1.90
2023-04-30T17:37:45.388Z,2.23
2023-04-30T17:43:00.441Z,1.97
2023-04-30T17:45:30.506Z,2.03
2023-04-30T17:47:58.925Z,2.00
2023-04-30T17:50:29.234Z,2.10
2023-04-30T17:52:57.983Z,2.13
2023-04-30T17:55:27.125Z,2.20
2023-04-30T17:57:59.381Z,2.30
2023-04-30T18:00:35.764Z,2.30
2023-04-30T18:03:05.755Z,2.77
2023-04-30T18:05:37.085Z,2.63
2023-04-30T18:08:09.377Z,2.27
2023-04-30T18:10:43.911Z,2.13
2023-04-30T18:13:13.663Z,2.30
2023-04-30T18:18:25.038Z,2.70
2023-04-30T18:20:55.933Z,2.40
2023-04-30T18:23:29.004Z,3.07
2023-04-30T18:26:03.015Z,2.10
2023-04-30T18:28:33.071Z,2.60
2023-04-30T18:31:17.190Z,2.17
2023-04-30T18:33:47.392Z,2.50
2023-04-30T18:36:17.689Z,2.87
2023-04-30T18:38:46.691Z,2.40
2023-04-30T18:41:16.413Z,2.17
2023-04-30T18:43:49.024Z,2.73
2023-04-30T18:46:18.538Z,2.33
2023-04-30T18:48:47.415Z,2.43
2023-04-30T18:51:18.607Z,2.23
2023-04-30T18:53:52.216Z,2.43
2023-04-30T18:56:22.132Z,2.30
2023-04-30T18:58:51.712Z,2.53
2023-04-30T19:01:32.494Z,2.73
2023-04-30T19:04:09.289Z,3.00
2023-04-30T19:06:39.502Z,1.93
2023-04-30T19:09:09.893Z,2.17
2023-04-30T19:11:39.956Z,2.20
2023-04-30T19:14:12.361Z,2.30
2023-04-30T19:19:26.635Z,2.63
2023-04-30T19:22:07.399Z,2.00
2023-04-30T19:24:37.350Z,1.80
2023-04-30T19:27:09.670Z,2.00
2023-04-30T19:29:41.852Z,2.50
2023-04-30T19:32:11.132Z,1.77
2023-04-30T19:34:41.138Z,2.70
2023-04-30T19:37:14.959Z,2.50
2023-04-30T19:39:52.824Z,2.07
2023-04-30T19:42:24.324Z,1.60
2023-04-30T19:44:54.993Z,2.23
2023-04-30T19:47:25.745Z,2.50
2023-04-30T19:49:57.843Z,2.50
2023-04-30T19:52:28.940Z,2.07
2023-04-30T19:54:58.015Z,2.20
2023-04-30T19:57:28.529Z,2.40
2023-04-30T19:59:58.111Z,1.87
2023-04-30T20:02:27.748Z,2.70
2023-04-30T20:05:01.163Z,2.70
2023-04-30T20:07:33.077Z,2.17
2023-04-30T20:10:03.987Z,2.37
2023-04-30T20:12:40.189Z,2.20
2023-04-30T20:15:15.989Z,2.10
2023-04-30T20:17:46.133Z,2.20
2023-04-30T20:20:15.539Z,2.40
2023-04-30T20:22:48.113Z,2.33
2023-04-30T20:25:18.898Z,2.40
2023-04-30T20:27:48.846Z,2.43
2023-04-30T20:33:16.327Z,2.40
2023-04-30T20:35:45.886Z,2.37
2023-04-30T20:38:26.254Z,1.73
2023-04-30T20:40:56.924Z,2.37
2023-04-30T20:43:25.542Z,1.80
2023-04-30T20:45:54.754Z,2.30
2023-04-30T20:48:30.468Z,2.57
2023-04-30T20:51:00.719Z,1.90
2023-04-30T20:53:29.971Z,2.60
2023-04-30T20:56:15.028Z,2.10
2023-04-30T20:58:48.697Z,2.87
2023-04-30T21:01:25.127Z,1.67
2023-04-30T21:03:56.400Z,2.47
2023-04-30T21:06:27.376Z,3.03
2023-04-30T21:08:56.799Z,2.60
2023-04-30T21:14:24.415Z,2.53
2023-04-30T21:16:54.172Z,3.20
2023-04-30T21:19:37.659Z,2.43
2023-04-30T21:22:06.538Z,2.20
2023-04-30T21:24:39.856Z,2.90
2023-04-30T21:27:22.098Z,2.50
2023-04-30T21:29:52.760Z,2.40
2023-04-30T21:32:23.024Z,2.70
2023-04-30T21:35:13.199Z,2.67
2023-04-30T21:37:43.112Z,2.87
2023-04-30T21:40:12.717Z,2.33
2023-04-30T21:42:41.171Z,3.17
2023-04-30T21:48:23.089Z,2.53
2023-04-30T21:54:25.997Z,2.40
2023-04-30T21:56:57.677Z,3.30
2023-04-30T21:59:28.973Z,3.50
2023-04-30T22:02:16.582Z,2.70
2023-04-30T22:04:54.856Z,2.20
2023-04-30T22:07:25.746Z,2.10
2023-04-30T22:10:03.548Z,3.33
2023-04-30T22:12:32.843Z,2.90
2023-04-30T22:15:02.067Z,3.27
2023-04-30T22:20:16.275Z,2.27
2023-04-30T22:22:49.343Z,2.37
2023-04-30T22:25:33.888Z,1.90
2023-04-30T22:28:03.812Z,2.40
2023-04-30T22:30:32.804Z,2.73
2023-04-30T22:33:04.183Z,2.63
2023-04-30T22:35:35.012Z,3.00
2023-04-30T22:41:04.555Z,2.73
2023-04-30T22:43:38.538Z,2.43
2023-04-30T22:46:19.753Z,2.80
2023-04-30T22:48:55.763Z,2.60
2023-04-30T22:51:39.700Z,2.63
2023-04-30T22:54:25.372Z,2.87
2023-04-30T22:56:54.102Z,2.20
2023-04-30T22:59:24.802Z,2.30
2023-04-30T23:01:53.637Z,2.60
2023-04-30T23:04:36.394Z,2.20
2023-04-30T23:07:09.725Z,2.80
2023-04-30T23:09:58.395Z,2.73
2023-04-30T23:12:29.926Z,3.20
2023-04-30T23:17:50.528Z,1.93
2023-04-30T23:20:19.612Z,2.40
2023-04-30T23:22:48.439Z,2.50
2023-04-30T23:25:18.502Z,2.60
2023-04-30T23:27:47.223Z,2.73
2023-04-30T23:30:18.021Z,2.67
2023-04-30T23:32:47.604Z,3.00
2023-04-30T23:35:23.964Z,2.73
2023-04-30T23:37:54.925Z,2.67
2023-04-30T23:40:26.834Z,2.80
2023-04-30T23:42:55.977Z,3.40
2023-04-30T23:45:29.439Z,2.63
2023-04-30T23:47:59.185Z,2.80
2023-04-30T23:50:38.317Z,3.00
2023-04-30T23:53:09.923Z,2.73
2023-04-30T23:55:38.990Z,2.77
2023-04-30T23:58:07.578Z,2.97
